Time;durP1;ratioP1;P1;durP2;ratioP2;P2;SDS_P1;SDS_P2;PMS_P1;PMS_P2;Temp;Humidity;BMP_temperature;BMP_pressure;BME280_temperature;BME280_humidity;BME280_pressure;Samples;Min_cycle;Max_cycle;Signal;HPM_P1;HPM_P2
2022/06/18 00:02:23;;;;;;;;;;;;;;;28.82;33.84;94876.28;5026844;28;8861;-60
2022/06/18 00:04:51;;;;;;;;;;;;;;;28.81;33.85;94877.56;5052514;28;7235;-60
2022/06/18 00:07:21;;;;;;;;;;;;;;;28.80;33.86;94876.81;5067788;28;9104;-60
2022/06/18 00:09:58;;;;;;;;;;;;;;;28.78;33.84;94873.06;5062477;28;7327;-60
2022/06/18 00:15:20;;;;;;;;;;;;;;;28.78;33.86;94871.03;5059765;28;7288;-60
2022/06/18 00:17:47;;;;;;;;;;;;;;;28.78;33.44;94868.28;5065659;28;7869;-60
2022/06/18 00:20:26;;;;;;;;;;;;;;;28.78;34.06;94868.28;5038838;28;9056;-60
2022/06/18 00:23:00;;;;;;;;;;;;;;;28.77;33.71;94866.03;5073632;28;7150;-60
2022/06/18 00:25:35;;;;;;;;;;;;;;;28.75;33.82;94858.22;5056567;28;7560;-61
2022/06/18 00:28:29;;;;;;;;;;;;;;;28.71;33.72;94860.53;5058028;28;6985;-60
2022/06/18 00:30:59;;;;;;;;;;;;;;;28.72;33.83;94866.84;5068199;28;7055;-60
2022/06/18 00:33:28;;;;;;;;;;;;;;;28.71;33.76;94860.53;5056516;28;8782;-60
2022/06/18 00:36:13;;;;;;;;;;;;;;;28.69;34.01;94859.56;5056476;28;9056;-60
2022/06/18 00:38:42;;;;;;;;;;;;;;;28.66;33.79;94858.59;5075941;28;8787;-60
2022/06/18 00:41:18;;;;;;;;;;;;;;;28.66;33.89;94852.31;5075446;28;7267;-60
2022/06/18 00:43:52;;;;;;;;;;;;;;;28.66;33.61;94850.31;5057268;28;6976;-60
2022/06/18 00:46:33;;;;;;;;;;;;;;;28.65;33.34;94854.31;5044308;28;7228;-61
2022/06/18 00:49:45;;;;;;;;;;;;;;;28.64;33.74;94855.59;5072427;28;7206;-61
2022/06/18 00:52:28;;;;;;;;;;;;;;;28.62;33.95;94851.84;4965990;28;6963;-60
2022/06/18 00:55:01;;;;;;;;;;;;;;;28.60;33.24;94852.34;4965363;28;6861;-60
2022/06/18 00:57:55;;;;;;;;;;;;;;;28.61;34.32;94855.88;4964152;28;9182;-60
2022/06/18 01:00:28;;;;;;;;;;;;;;;28.59;33.93;94856.41;4968898;28;9164;-60
2022/06/18 01:03:30;;;;;;;;;;;;;;;28.57;33.64;94849.84;4957498;28;9195;-60
2022/06/18 01:06:02;;;;;;;;;;;;;;;28.55;33.70;94850.38;4870233;29;7536;-60
2022/06/18 01:08:45;;;;;;;;;;;;;;;28.54;34.10;94850.88;4897481;29;9018;-60
2022/06/18 01:11:27;;;;;;;;;;;;;;;28.54;33.45;94837.06;4881393;29;9132;-60
2022/06/18 01:13:57;;;;;;;;;;;;;;;28.51;33.86;94838.84;4880769;29;9044;-60
2022/06/18 01:16:34;;;;;;;;;;;;;;;28.52;33.35;94834.81;4870283;29;9089;-60
2022/06/18 01:19:23;;;;;;;;;;;;;;;28.51;33.84;94833.31;4863671;29;7402;-60
2022/06/18 01:22:20;;;;;;;;;;;;;;;28.50;33.82;94847.66;4877471;29;7409;-60
2022/06/18 01:24:47;;;;;;;;;;;;;;;28.48;33.84;94847.44;4886971;29;8935;-60
2022/06/18 01:27:13;;;;;;;;;;;;;;;28.46;33.63;94845.19;4895272;29;8782;-60
2022/06/18 01:29:42;;;;;;;;;;;;;;;28.46;33.80;94841.66;4913318;28;8585;-60
2022/06/18 01:32:15;;;;;;;;;;;;;;;28.46;33.76;94838.91;4973618;28;7193;-60
2022/06/18 01:34:45;;;;;;;;;;;;;;;28.44;33.49;94833.16;4959347;28;8409;-60
2022/06/18 01:37:21;;;;;;;;;;;;;;;28.42;33.73;94824.63;4955641;28;9435;-60
2022/06/18 01:39:48;;;;;;;;;;;;;;;28.41;33.77;94829.38;4938333;28;9062;-60
2022/06/18 01:42:26;;;;;;;;;;;;;;;28.40;34.02;94830.69;5046501;28;7097;-60
2022/06/18 01:45:05;;;;;;;;;;;;;;;28.40;33.84;94832.69;5054637;28;7021;-60
2022/06/18 01:47:49;;;;;;;;;;;;;;;28.38;33.80;94825.63;5054586;28;7288;-60
2022/06/18 01:50:35;;;;;;;;;;;;;;;28.38;34.30;94829.69;5074046;28;7248;-60
2022/06/18 01:53:33;;;;;;;;;;;;;;;28.34;33.90;94830.72;5070174;28;9285;-60
2022/06/18 01:56:34;;;;;;;;;;;;;;;28.34;33.83;94833.47;5009649;28;7032;-60
2022/06/18 01:59:41;;;;;;;;;;;;;;;28.33;33.81;94837.53;5012621;28;8870;-60
2022/06/18 02:02:07;;;;;;;;;;;;;;;28.30;33.72;94832.28;4993933;28;8853;-60
2022/06/18 02:04:35;;;;;;;;;;;;;;;28.32;33.21;94832.50;5016569;28;7232;-60
2022/06/18 02:07:05;;;;;;;;;;;;;;;28.30;33.56;94832.28;4979477;28;9052;-60
2022/06/18 02:09:59;;;;;;;;;;;;;;;28.29;33.73;94828.03;4978001;28;8771;-60
2022/06/18 02:12:40;;;;;;;;;;;;;;;28.27;33.86;94827.78;5008508;28;7478;-60
2022/06/18 02:15:17;;;;;;;;;;;;;;;28.27;33.62;94831.28;5002661;28;7321;-60
2022/06/18 02:17:58;;;;;;;;;;;;;;;28.26;33.44;94823.50;5007267;28;9285;-60
2022/06/18 02:20:33;;;;;;;;;;;;;;;28.25;33.75;94824.78;5007568;28;8790;-60
2022/06/18 02:23:01;;;;;;;;;;;;;;;28.23;33.63;94819.03;4991748;28;7222;-60
2022/06/18 02:25:31;;;;;;;;;;;;;;;28.22;33.91;94821.03;4987026;28;7010;-60
2022/06/18 02:28:05;;;;;;;;;;;;;;;28.22;33.72;94823.06;4999925;28;7421;-60
2022/06/18 02:30:36;;;;;;;;;;;;;;;28.21;33.64;94816.75;4994519;28;6988;-60
2022/06/18 02:33:38;;;;;;;;;;;;;;;28.22;33.75;94823.81;5041139;28;9443;-60
2022/06/18 02:36:24;;;;;;;;;;;;;;;28.20;33.39;94820.81;4956596;28;7241;-60
2022/06/18 02:38:57;;;;;;;;;;;;;;;28.19;33.70;94818.53;4969888;28;9178;-60
2022/06/18 02:41:24;;;;;;;;;;;;;;;28.18;33.65;94812.28;4953989;28;7232;-60
2022/06/18 02:43:51;;;;;;;;;;;;;;;28.17;33.30;94812.78;4953107;28;9293;-61
2022/06/18 02:46:20;;;;;;;;;;;;;;;28.14;33.38;94811.06;4964084;28;7344;-60
2022/06/18 02:48:56;;;;;;;;;;;;;;;28.13;33.50;94815.84;4971668;28;7905;-60
2022/06/18 02:51:33;;;;;;;;;;;;;;;28.12;33.90;94814.34;4966446;28;7990;-60
2022/06/18 02:53:59;;;;;;;;;;;;;;;28.11;33.35;94814.88;4970701;28;7322;-60
2022/06/18 02:57:04;;;;;;;;;;;;;;;28.10;33.68;94816.16;4964167;28;7461;-60
2022/06/18 02:59:52;;;;;;;;;;;;;;;28.10;33.75;94814.09;4972545;28;7705;-60
2022/06/18 03:02:20;;;;;;;;;;;;;;;28.08;33.84;94813.88;4969269;28;9373;-60
2022/06/18 03:04:46;;;;;;;;;;;;;;;28.09;33.10;94812.63;4957127;28;7480;-60
2022/06/18 03:07:14;;;;;;;;;;;;;;;28.07;33.48;94815.16;4953819;28;8660;-60
2022/06/18 03:12:30;;;;;;;;;;;;;;;28.06;33.77;94816.41;5020536;28;8862;-60
2022/06/18 03:15:02;;;;;;;;;;;;;;;28.05;33.42;94814.94;5053941;28;7134;-60
2022/06/18 03:17:33;;;;;;;;;;;;;;;28.04;33.99;94816.19;5053185;28;7203;-61
2022/06/18 03:20:09;;;;;;;;;;;;;;;28.03;33.55;94813.94;5054779;28;7232;-60
2022/06/18 03:22:42;;;;;;;;;;;;;;;28.03;33.32;94822.25;5053560;28;7863;-60
2022/06/18 03:25:10;;;;;;;;;;;;;;;28.02;33.70;94815.19;5049847;28;7249;-60
2022/06/18 03:27:36;;;;;;;;;;;;;;;28.01;33.80;94810.94;5051396;28;6859;-60
2022/06/18 03:30:31;;;;;;;;;;;;;;;28.01;33.73;94808.94;5035429;28;7156;-60
2022/06/18 03:32:57;;;;;;;;;;;;;;;27.99;33.45;94816.25;4991949;28;7262;-60
2022/06/18 03:35:44;;;;;;;;;;;;;;;28.00;33.84;94814.97;5030615;28;7240;-60
2022/06/18 03:38:20;;;;;;;;;;;;;;;27.99;33.89;94816.97;4995593;28;8677;-60
2022/06/18 03:40:51;;;;;;;;;;;;;;;27.96;33.62;94811.72;5006790;28;9000;-60
2022/06/18 03:43:23;;;;;;;;;;;;;;;27.93;33.70;94807.19;5003993;28;7906;-60
2022/06/18 03:45:53;;;;;;;;;;;;;;;27.93;33.60;94810.72;4992432;28;9386;-60
2022/06/18 03:48:48;;;;;;;;;;;;;;;27.93;33.64;94812.72;4993366;28;7244;-60
2022/06/18 03:51:29;;;;;;;;;;;;;;;27.91;34.02;94816.03;4989777;28;7127;-60
2022/06/18 03:53:59;;;;;;;;;;;;;;;27.90;33.73;94819.31;4998904;28;8969;-60
2022/06/18 03:56:28;;;;;;;;;;;;;;;27.87;33.34;94815.56;5013225;28;7208;-60
2022/06/18 03:58:55;;;;;;;;;;;;;;;27.86;33.76;94821.59;5019543;28;7151;-60
2022/06/18 04:01:25;;;;;;;;;;;;;;;27.86;33.87;94821.59;4976218;28;9066;-60
2022/06/18 04:03:54;;;;;;;;;;;;;;;27.87;34.09;94825.84;5000011;28;7003;-60
2022/06/18 04:06:21;;;;;;;;;;;;;;;27.85;33.83;94826.38;5006213;28;7030;-60
2022/06/18 04:08:47;;;;;;;;;;;;;;;27.84;33.28;94833.16;5015206;28;7420;-60
2022/06/18 04:11:14;;;;;;;;;;;;;;;27.85;34.02;94833.91;5066463;28;8989;-60
2022/06/18 04:13:41;;;;;;;;;;;;;;;27.84;33.74;94832.44;5044306;28;9230;-60
2022/06/18 04:16:17;;;;;;;;;;;;;;;27.81;33.67;94828.69;5060435;28;6986;-60
2022/06/18 04:18:50;;;;;;;;;;;;;;;27.82;33.80;94838.47;5056581;28;7210;-60
2022/06/18 04:21:16;;;;;;;;;;;;;;;27.81;34.14;94841.75;5071017;28;7323;-60
2022/06/18 04:23:58;;;;;;;;;;;;;;;27.81;34.54;94841.75;5067668;28;6981;-60
2022/06/18 04:26:33;;;;;;;;;;;;;;;27.76;34.68;94837.00;5047567;28;7266;-60
2022/06/18 04:29:08;;;;;;;;;;;;;;;27.73;34.71;94836.00;5071081;28;9384;-60
2022/06/18 04:31:40;;;;;;;;;;;;;;;27.73;34.62;94836.00;5067418;28;7359;-60
2022/06/18 04:34:13;;;;;;;;;;;;;;;27.74;34.18;94828.47;5051121;28;7039;-60
2022/06/18 04:36:48;;;;;;;;;;;;;;;27.76;34.54;94832.22;5045982;28;7073;-60
2022/06/18 04:39:14;;;;;;;;;;;;;;;27.77;34.71;94828.22;5049510;28;9230;-60
2022/06/18 04:41:40;;;;;;;;;;;;;;;27.77;34.85;94828.22;5047698;28;8156;-60
2022/06/18 04:44:06;;;;;;;;;;;;;;;27.75;34.03;94827.22;5052220;28;7664;-60
2022/06/18 04:46:35;;;;;;;;;;;;;;;27.77;34.34;94833.00;5051486;28;9805;-60
2022/06/18 04:49:01;;;;;;;;;;;;;;;27.76;34.44;94829.47;5050246;28;8462;-60
2022/06/18 04:51:28;;;;;;;;;;;;;;;27.77;34.44;94833.75;5042092;28;9262;-60
2022/06/18 04:53:54;;;;;;;;;;;;;;;27.76;34.24;94829.47;5048049;28;7392;-60
2022/06/18 04:56:31;;;;;;;;;;;;;;;27.72;35.09;94826.25;5063462;28;7329;-60
2022/06/18 04:59:03;;;;;;;;;;;;;;;27.73;34.86;94821.47;5031828;28;7731;-60
2022/06/18 05:01:31;;;;;;;;;;;;;;;27.73;34.87;94818.69;5062494;28;9131;-60
2022/06/18 05:04:08;;;;;;;;;;;;;;;27.73;35.16;94824.97;5067422;28;7503;-60
2022/06/18 05:06:46;;;;;;;;;;;;;;;27.72;35.11;94814.44;5068555;28;8021;-60
2022/06/18 05:09:23;;;;;;;;;;;;;;;27.69;35.64;94827.25;5056825;28;7024;-60
2022/06/18 05:11:52;;;;;;;;;;;;;;;27.67;35.43;94824.25;5052568;28;7236;-60
2022/06/18 05:14:20;;;;;;;;;;;;;;;27.66;35.72;94827.53;5048960;28;7282;-60
2022/06/18 05:17:09;;;;;;;;;;;;;;;27.66;35.59;94827.53;5053659;28;7146;-60
2022/06/18 05:19:35;;;;;;;;;;;;;;;27.66;35.76;94827.53;5073141;28;9293;-60
2022/06/18 05:22:09;;;;;;;;;;;;;;;27.66;35.83;94828.31;5056846;28;7259;-60
2022/06/18 05:24:35;;;;;;;;;;;;;;;27.66;35.71;94822.00;5046548;28;7048;-60
2022/06/18 05:27:04;;;;;;;;;;;;;;;27.65;35.52;94821.25;5070976;28;7278;-60
2022/06/18 05:29:34;;;;;;;;;;;;;;;27.66;35.58;94819.25;5040629;28;9441;-59
2022/06/18 05:32:19;;;;;;;;;;;;;;;27.67;35.72;94818.72;5053731;28;8404;-60
2022/06/18 05:34:50;;;;;;;;;;;;;;;27.66;35.65;94811.72;5053262;28;9079;-60
2022/06/18 05:37:20;;;;;;;;;;;;;;;27.67;36.35;94815.22;5052868;28;8939;-59
2022/06/18 05:39:47;;;;;;;;;;;;;;;27.67;35.97;94813.19;5050054;28;9021;-60
2022/06/18 05:42:13;;;;;;;;;;;;;;;27.66;36.46;94805.44;5053968;28;8849;-60
2022/06/18 05:44:38;;;;;;;;;;;;;;;27.65;36.68;94812.97;5053160;28;9082;-59
2022/06/18 05:47:28;;;;;;;;;;;;;;;27.66;36.72;94806.19;5052876;28;9114;-59
2022/06/18 05:50:13;;;;;;;;;;;;;;;27.67;36.46;94801.38;5067724;28;9140;-60
2022/06/18 05:52:43;;;;;;;;;;;;;;;27.68;36.62;94794.63;5051552;28;7233;-60
2022/06/18 05:55:21;;;;;;;;;;;;;;;27.68;36.35;94798.13;5052755;28;8773;-60
2022/06/18 05:57:50;;;;;;;;;;;;;;;27.68;36.75;94802.91;5053668;28;9120;-60
2022/06/18 06:00:30;;;;;;;;;;;;;;;27.67;36.27;94801.38;5053985;28;7633;-61
2022/06/18 06:03:03;;;;;;;;;;;;;;;27.67;35.87;94798.63;5037508;28;7200;-60
2022/06/18 06:05:42;;;;;;;;;;;;;;;27.68;36.33;94809.19;5063616;28;7102;-60
2022/06/18 06:08:20;;;;;;;;;;;;;;;27.68;36.12;94798.13;5062663;28;7154;-60
2022/06/18 06:13:36;;;;;;;;;;;;;;;27.69;36.17;94804.41;5065378;28;7332;-60
2022/06/18 06:16:03;;;;;;;;;;;;;;;27.67;36.52;94806.91;5063183;28;7301;-60
2022/06/18 06:18:30;;;;;;;;;;;;;;;27.69;36.55;94809.94;5065599;28;9199;-60
2022/06/18 06:21:16;;;;;;;;;;;;;;;27.68;36.64;94806.44;5052019;28;9529;-60
2022/06/18 06:23:44;;;;;;;;;;;;;;;27.69;36.55;94805.16;5034324;28;7295;-60
2022/06/18 06:26:34;;;;;;;;;;;;;;;27.73;37.06;94791.78;5051607;28;7263;-60
2022/06/18 06:29:01;;;;;;;;;;;;;;;27.75;36.69;94796.81;5048131;28;7241;-60
2022/06/18 06:31:29;;;;;;;;;;;;;;;27.79;36.88;94802.81;5059496;28;7323;-59
2022/06/18 06:34:05;;;;;;;;;;;;;;;27.77;36.88;94800.56;5041365;28;6991;-60
2022/06/18 06:36:31;;;;;;;;;;;;;;;27.77;37.10;94788.75;5058943;28;9127;-60
2022/06/18 06:39:27;;;;;;;;;;;;;;;27.76;36.66;94792.78;5071214;28;7387;-59
2022/06/18 06:41:55;;;;;;;;;;;;;;;27.77;37.23;94784.00;5002907;28;8747;-60
2022/06/18 06:44:23;;;;;;;;;;;;;;;27.77;37.25;94780.47;4987420;28;8434;-59
2022/06/18 06:46:52;;;;;;;;;;;;;;;27.81;37.19;94778.16;4992351;28;7286;-60
2022/06/18 06:49:18;;;;;;;;;;;;;;;27.83;37.32;94775.63;4990373;28;9465;-59
2022/06/18 06:51:46;;;;;;;;;;;;;;;27.85;37.47;94773.84;4990352;28;9171;-60
2022/06/18 06:54:14;;;;;;;;;;;;;;;27.87;37.32;94776.09;4984619;28;7209;-60
2022/06/18 06:59:25;;;;;;;;;;;;;;;27.87;37.60;94765.78;4991441;28;7482;-60
2022/06/18 07:01:53;;;;;;;;;;;;;;;27.85;37.78;94767.56;4988554;28;7325;-60
2022/06/18 07:04:20;;;;;;;;;;;;;;;27.83;37.63;94765.34;4984372;28;7247;-60
2022/06/18 07:06:47;;;;;;;;;;;;;;;27.82;37.78;94763.09;4994064;28;7208;-60
2022/06/18 07:09:14;;;;;;;;;;;;;;;27.83;38.05;94764.56;4993014;28;9065;-60
2022/06/18 07:11:40;;;;;;;;;;;;;;;27.85;37.13;94764.81;4989087;28;7344;-60
2022/06/18 07:14:08;;;;;;;;;;;;;;;27.85;37.86;94768.34;4991195;28;7198;-60
2022/06/18 07:16:45;;;;;;;;;;;;;;;27.88;37.86;94761.78;4984983;28;8732;-60
2022/06/18 07:19:27;;;;;;;;;;;;;;;27.86;37.93;94758.03;5041515;28;7189;-60
2022/06/18 07:21:53;;;;;;;;;;;;;;;27.87;37.76;94760.25;5055619;28;7001;-60
2022/06/18 07:25:14;;;;;;;;;;;;;;;27.92;38.50;94765.00;5044532;28;7258;-60
2022/06/18 07:27:54;;;;;;;;;;;;;;;27.92;37.67;94755.94;4955905;28;9478;-60
2022/06/18 07:30:20;;;;;;;;;;;;;;;27.93;37.93;94752.66;4967482;28;7478;-60
2022/06/18 07:32:49;;;;;;;;;;;;;;;27.95;38.00;94760.47;4965186;28;7296;-60
2022/06/18 07:35:22;;;;;;;;;;;;;;;27.92;37.74;94756.72;4966337;28;8386;-60
2022/06/18 07:37:48;;;;;;;;;;;;;;;27.92;38.21;94759.47;4951323;28;9278;-60
2022/06/18 07:40:16;;;;;;;;;;;;;;;27.92;38.23;94756.72;4953025;28;7244;-61
2022/06/18 07:42:45;;;;;;;;;;;;;;;27.92;38.05;94755.94;4950937;28;9240;-60
2022/06/18 07:45:16;;;;;;;;;;;;;;;27.92;38.41;94751.19;4959142;28;7375;-60
2022/06/18 07:47:46;;;;;;;;;;;;;;;27.92;38.43;94747.66;4962837;28;7176;-60
2022/06/18 07:50:22;;;;;;;;;;;;;;;27.99;38.30;94755.41;4967489;28;7275;-61
2022/06/18 07:52:51;;;;;;;;;;;;;;;28.01;38.33;94755.66;4966035;28;9252;-60
2022/06/18 07:55:24;;;;;;;;;;;;;;;28.03;38.04;94753.09;4961417;28;9280;-60
2022/06/18 07:57:59;;;;;;;;;;;;;;;28.03;38.00;94744.81;4963370;28;7508;-60
2022/06/18 08:00:27;;;;;;;;;;;;;;;28.06;37.92;94746.53;4961704;28;7570;-60
2022/06/18 08:03:04;;;;;;;;;;;;;;;28.07;37.59;94748.03;5043267;28;7383;-60
2022/06/18 08:05:40;;;;;;;;;;;;;;;28.07;36.98;94743.25;5064129;28;9053;-61
2022/06/18 08:08:07;;;;;;;;;;;;;;;28.09;36.57;94742.72;5042987;28;7340;-61
2022/06/18 08:10:42;;;;;;;;;;;;;;;28.09;36.63;94742.72;5049968;28;8148;-61
2022/06/18 08:13:08;;;;;;;;;;;;;;;28.12;36.60;94741.69;5047451;28;7947;-61
2022/06/18 08:15:34;;;;;;;;;;;;;;;28.13;36.78;94738.41;5050109;28;7455;-61
2022/06/18 08:18:01;;;;;;;;;;;;;;;28.13;36.64;94738.41;5049462;28;7495;-61
2022/06/18 08:20:30;;;;;;;;;;;;;;;28.15;36.84;94735.13;5066265;28;7274;-61
2022/06/18 08:23:06;;;;;;;;;;;;;;;28.14;36.73;94741.94;5049825;28;7026;-61
2022/06/18 08:25:42;;;;;;;;;;;;;;;28.13;36.86;94732.88;5070537;28;9421;-61
2022/06/18 08:28:11;;;;;;;;;;;;;;;28.12;36.55;94731.38;5037372;28;9102;-61
2022/06/18 08:30:41;;;;;;;;;;;;;;;28.14;36.30;94728.09;5033388;28;8793;-61
2022/06/18 08:33:09;;;;;;;;;;;;;;;28.14;36.88;94730.88;5051334;28;7091;-61
2022/06/18 08:35:40;;;;;;;;;;;;;;;28.14;36.81;94725.34;5043396;28;7393;-61
2022/06/18 08:38:14;;;;;;;;;;;;;;;28.15;36.86;94726.81;5052293;28;7169;-61
2022/06/18 08:41:11;;;;;;;;;;;;;;;28.15;36.75;94724.81;5047419;28;7055;-61
2022/06/18 08:44:05;;;;;;;;;;;;;;;28.15;36.47;94730.34;5049826;28;9095;-61
2022/06/18 08:46:42;;;;;;;;;;;;;;;28.15;36.63;94721.28;5065950;28;9072;-61
2022/06/18 08:49:27;;;;;;;;;;;;;;;28.15;36.72;94724.06;5053779;28;7204;-61
2022/06/18 08:52:18;;;;;;;;;;;;;;;28.15;36.72;94715.75;5054744;28;7067;-61
2022/06/18 08:55:02;;;;;;;;;;;;;;;28.14;36.59;94720.53;5049807;28;9073;-61
2022/06/18 08:58:01;;;;;;;;;;;;;;;28.15;36.61;94719.28;5057089;28;8777;-61
2022/06/18 09:00:55;;;;;;;;;;;;;;;28.16;36.57;94717.28;4955796;28;7207;-61
2022/06/18 09:03:37;;;;;;;;;;;;;;;28.17;36.37;94718.75;4943858;28;7288;-61
2022/06/18 09:06:40;;;;;;;;;;;;;;;28.16;36.67;94714.50;4968957;28;9780;-61
2022/06/18 09:09:25;;;;;;;;;;;;;;;28.17;36.72;94713.22;4963671;28;7236;-61
2022/06/18 09:12:07;;;;;;;;;;;;;;;28.17;36.74;94710.44;4966011;28;9201;-61
2022/06/18 09:14:59;;;;;;;;;;;;;;;28.17;36.62;94710.44;4957370;28;7312;-61
2022/06/18 09:17:40;;;;;;;;;;;;;;;28.18;36.29;94711.97;4970980;28;8962;-61
2022/06/18 09:20:20;;;;;;;;;;;;;;;28.17;36.75;94708.44;4952864;28;7191;-61
2022/06/18 09:22:53;;;;;;;;;;;;;;;28.17;37.05;94711.22;4963802;28;9156;-61
2022/06/18 09:25:30;;;;;;;;;;;;;;;28.18;36.72;94698.13;4963609;28;9448;-61
2022/06/18 09:28:09;;;;;;;;;;;;;;;28.18;36.91;94698.13;4951428;28;7152;-61
2022/06/18 09:31:07;;;;;;;;;;;;;;;28.18;36.90;94698.13;4958902;28;7330;-62
2022/06/18 09:34:23;;;;;;;;;;;;;;;28.19;36.90;94692.06;4940528;28;7297;-61
2022/06/18 09:36:57;;;;;;;;;;;;;;;28.19;36.91;94694.84;4962223;28;7164;-62
2022/06/18 09:39:49;;;;;;;;;;;;;;;28.18;36.99;94693.34;4968330;28;9072;-62
2022/06/18 09:42:37;;;;;;;;;;;;;;;28.18;36.40;94700.91;4966814;28;7267;-62
2022/06/18 09:45:22;;;;;;;;;;;;;;;28.20;36.63;94695.59;4966562;28;8773;-62
2022/06/18 09:47:52;;;;;;;;;;;;;;;28.20;36.70;94681.75;4960860;28;7479;-62
2022/06/18 09:50:47;;;;;;;;;;;;;;;28.20;36.58;94690.81;4950639;28;7078;-62
2022/06/18 09:53:22;;;;;;;;;;;;;;;28.23;36.17;94680.72;4963012;28;6972;-62
2022/06/18 09:56:15;;;;;;;;;;;;;;;28.22;36.32;94687.53;4998336;28;7281;-62
2022/06/18 09:58:51;;;;;;;;;;;;;;;28.23;36.28;94681.47;4977372;28;7412;-62
2022/06/18 10:01:53;;;;;;;;;;;;;;;28.24;35.96;94687.75;4981366;28;9092;-62
2022/06/18 10:07:33;;;;;;;;;;;;;;;28.27;37.07;94686.72;4946611;28;9069;-62
2022/06/18 10:10:15;;;;;;;;;;;;;;;28.27;37.05;94681.91;4958512;28;9140;-62
2022/06/18 10:12:49;;;;;;;;;;;;;;;28.28;36.86;94677.13;5006378;28;7253;-61
2022/06/18 10:15:20;;;;;;;;;;;;;;;28.28;36.88;94668.84;5004542;28;9416;-61
2022/06/18 10:18:25;;;;;;;;;;;;;;;28.30;36.92;94680.13;4997502;28;8808;-62
2022/06/18 10:21:17;;;;;;;;;;;;;;;28.32;36.84;94669.28;4987191;28;8915;-61
2022/06/18 10:24:17;;;;;;;;;;;;;;;28.30;37.52;94666.28;4991979;28;7009;-61
2022/06/18 10:27:14;;;;;;;;;;;;;;;28.33;37.38;94662.50;4952308;28;7436;-61
2022/06/18 10:30:05;;;;;;;;;;;;;;;28.31;37.44;94660.25;4955822;28;9527;-61
2022/06/18 10:32:40;;;;;;;;;;;;;;;28.32;37.40;94656.19;4946883;28;9798;-61
2022/06/18 10:35:33;;;;;;;;;;;;;;;28.33;36.84;94656.97;4970370;28;7224;-61
2022/06/18 10:38:22;;;;;;;;;;;;;;;28.34;37.01;94658.44;4954842;28;7021;-61
2022/06/18 10:41:24;;;;;;;;;;;;;;;28.35;36.15;94657.19;4916878;29;9079;-61
2022/06/18 10:44:13;;;;;;;;;;;;;;;28.37;36.89;94657.41;4859589;29;9394;-61
2022/06/18 10:46:39;;;;;;;;;;;;;;;28.38;36.14;94652.63;4853778;29;6998;-61
2022/06/18 10:49:25;;;;;;;;;;;;;;;28.38;36.21;94647.84;4872672;29;9102;-61
2022/06/18 10:51:52;;;;;;;;;;;;;;;28.39;36.95;94643.78;4864121;29;7238;-61
2022/06/18 10:54:36;;;;;;;;;;;;;;;28.45;37.86;94646.50;4856408;29;9077;-60
2022/06/18 10:57:25;;;;;;;;;;;;;;;28.47;38.21;94638.41;4860490;29;8839;-61
2022/06/18 10:59:53;;;;;;;;;;;;;;;28.47;38.76;94641.91;4871652;29;8788;-61
2022/06/18 11:02:53;;;;;;;;;;;;;;;28.49;38.44;94642.16;4861946;29;7149;-61
2022/06/18 11:05:45;;;;;;;;;;;;;;;28.48;38.80;94632.34;4842607;29;9262;-60
2022/06/18 11:08:26;;;;;;;;;;;;;;;28.51;38.90;94641.63;4852319;29;9428;-61
2022/06/18 11:11:08;;;;;;;;;;;;;;;28.50;39.13;94626.28;4832337;29;6853;-61
2022/06/18 11:13:42;;;;;;;;;;;;;;;28.52;38.86;94635.56;4835303;29;8823;-61
2022/06/18 11:16:15;;;;;;;;;;;;;;;28.51;40.41;94634.09;4846307;29;9052;-61
2022/06/18 11:18:47;;;;;;;;;;;;;;;28.53;39.72;94631.53;4860392;29;7180;-61
2022/06/18 11:21:22;;;;;;;;;;;;;;;28.53;39.49;94622.47;4952333;28;9052;-61
2022/06/18 11:23:58;;;;;;;;;;;;;;;28.55;39.45;94611.63;4983251;28;9129;-61
2022/06/18 11:26:26;;;;;;;;;;;;;;;28.55;39.71;94614.41;4973929;28;6995;-61
2022/06/18 11:28:57;;;;;;;;;;;;;;;28.54;39.48;94608.09;4992139;28;7075;-61
2022/06/18 11:31:36;;;;;;;;;;;;;;;28.56;40.08;94611.09;4985891;28;7234;-61
2022/06/18 11:34:07;;;;;;;;;;;;;;;28.56;40.13;94605.56;4949339;28;7963;-61
2022/06/18 11:36:35;;;;;;;;;;;;;;;28.57;40.30;94603.56;4987672;28;7005;-61
2022/06/18 11:39:03;;;;;;;;;;;;;;;28.59;39.47;94592.72;4989079;28;7263;-61
2022/06/18 11:41:38;;;;;;;;;;;;;;;28.59;39.62;94584.44;5036347;28;9146;-61
2022/06/18 11:44:20;;;;;;;;;;;;;;;28.61;39.28;94582.63;5043809;28;8766;-61
2022/06/18 11:46:56;;;;;;;;;;;;;;;28.60;40.25;94581.13;5037054;28;7279;-61
2022/06/18 11:49:31;;;;;;;;;;;;;;;28.64;39.77;94572.53;5053987;28;7374;-61
2022/06/18 11:52:11;;;;;;;;;;;;;;;28.68;40.14;94575.72;5050265;28;9475;-61
2022/06/18 11:55:03;;;;;;;;;;;;;;;28.69;39.29;94569.66;5047831;28;7403;-61
2022/06/18 11:57:40;;;;;;;;;;;;;;;28.70;39.25;94562.88;5048879;28;7222;-61
2022/06/18 12:00:28;;;;;;;;;;;;;;;28.74;39.15;94566.06;5049873;28;7432;-61
2022/06/18 12:03:06;;;;;;;;;;;;;;;28.74;38.89;94568.09;5050385;28;7363;-61
2022/06/18 12:06:12;;;;;;;;;;;;;;;28.72;38.69;94563.09;5061891;28;7292;-61
2022/06/18 12:08:40;;;;;;;;;;;;;;;28.72;38.87;94554.03;5045832;28;7329;-61
2022/06/18 12:11:24;;;;;;;;;;;;;;;28.72;39.10;94548.50;5045134;28;7266;-61
2022/06/18 12:14:01;;;;;;;;;;;;;;;28.73;39.36;94547.22;5057321;28;7087;-61
2022/06/18 12:16:47;;;;;;;;;;;;;;;28.75;38.73;94547.44;5072831;28;7180;-61
2022/06/18 12:19:26;;;;;;;;;;;;;;;28.75;38.79;94545.41;5053784;28;7402;-61
2022/06/18 12:22:18;;;;;;;;;;;;;;;28.76;38.79;94548.91;5048305;28;9040;-61
2022/06/18 12:25:20;;;;;;;;;;;;;;;28.72;38.83;94538.16;5052894;28;7307;-61
2022/06/18 12:28:24;;;;;;;;;;;;;;;28.74;38.81;94530.09;5052164;28;6995;-61
2022/06/18 12:31:39;;;;;;;;;;;;;;;28.76;38.40;94527.53;4960059;28;7147;-61
2022/06/18 12:34:29;;;;;;;;;;;;;;;28.75;39.02;94528.06;4954753;28;7188;-61
2022/06/18 12:37:34;;;;;;;;;;;;;;;28.73;38.89;94519.53;4963152;28;9049;-61
2022/06/18 12:40:23;;;;;;;;;;;;;;;28.70;38.76;94513.03;4894804;29;7261;-61
2022/06/18 12:42:57;;;;;;;;;;;;;;;28.70;38.63;94506.75;4897526;29;8971;-61
2022/06/18 12:45:27;;;;;;;;;;;;;;;28.71;38.73;94503.44;4912508;29;7248;-61
2022/06/18 12:48:12;;;;;;;;;;;;;;;28.73;38.74;94509.19;4909456;29;9107;-61
2022/06/18 12:51:19;;;;;;;;;;;;;;;28.76;38.98;94508.16;4905009;29;7330;-61
2022/06/18 12:53:53;;;;;;;;;;;;;;;28.78;38.61;94494.53;4870068;29;8731;-61
2022/06/18 12:56:27;;;;;;;;;;;;;;;28.78;38.80;94493.78;4871724;29;8885;-62
2022/06/18 12:59:13;;;;;;;;;;;;;;;28.79;38.80;94484.97;4873932;29;9601;-62
2022/06/18 13:02:17;;;;;;;;;;;;;;;28.82;38.68;94474.81;4869319;29;9359;-61
2022/06/18 13:05:14;;;;;;;;;;;;;;;28.83;38.82;94484.63;4875361;29;7594;-61
2022/06/18 13:08:17;;;;;;;;;;;;;;;28.83;38.48;94473.56;4914360;28;7269;-61
2022/06/18 13:11:06;;;;;;;;;;;;;;;28.84;38.52;94470.25;4934074;28;7103;-61
2022/06/18 13:14:08;;;;;;;;;;;;;;;28.84;38.60;94472.28;4923427;28;7286;-61
2022/06/18 13:16:47;;;;;;;;;;;;;;;28.82;38.84;94458.97;4959683;28;7276;-61
2022/06/18 13:19:27;;;;;;;;;;;;;;;28.84;38.84;94458.47;4991141;28;7348;-61
2022/06/18 13:21:54;;;;;;;;;;;;;;;28.88;38.86;94454.06;4988102;28;9113;-61
2022/06/18 13:30:29;;;;;;;;;;;;;;;28.90;39.11;94446.00;5068817;28;7835;-61
2022/06/18 13:33:13;;;;;;;;;;;;;;;28.93;38.13;94438.63;5049607;28;7558;-61
2022/06/18 13:36:15;;;;;;;;;;;;;;;28.95;38.57;94430.53;5064071;28;7232;-62
2022/06/18 13:38:51;;;;;;;;;;;;;;;28.96;38.67;94430.03;5069491;28;7227;-61
2022/06/18 13:41:46;;;;;;;;;;;;;;;28.95;38.80;94422.22;5066822;28;9081;-61
2022/06/18 13:44:50;;;;;;;;;;;;;;;28.96;39.00;94418.19;5064943;28;9521;-61
2022/06/18 13:47:37;;;;;;;;;;;;;;;28.96;38.77;94412.66;5045020;28;7279;-61
2022/06/18 13:50:10;;;;;;;;;;;;;;;28.96;38.17;94407.88;5057318;28;7305;-61
2022/06/18 13:52:43;;;;;;;;;;;;;;;28.97;38.31;94403.81;5055229;28;7748;-61
2022/06/18 13:55:16;;;;;;;;;;;;;;;28.98;38.93;94397.00;5045007;28;7548;-61
2022/06/18 13:57:52;;;;;;;;;;;;;;;28.98;38.47;94388.69;5056444;28;9094;-61
2022/06/18 14:00:33;;;;;;;;;;;;;;;29.01;38.77;94386.88;5061462;28;7087;-61
2022/06/18 14:03:26;;;;;;;;;;;;;;;29.04;38.48;94383.78;5066668;28;7415;-61
2022/06/18 14:06:04;;;;;;;;;;;;;;;29.08;38.31;94378.66;5054608;28;7238;-61
2022/06/18 14:09:11;;;;;;;;;;;;;;;29.08;38.62;94372.38;5071023;28;9095;-61
2022/06/18 14:11:55;;;;;;;;;;;;;;;29.12;38.29;94372.81;4981111;28;7483;-61
2022/06/18 14:15:19;;;;;;;;;;;;;;;29.15;38.21;94363.44;4987900;28;9186;-61
2022/06/18 14:17:58;;;;;;;;;;;;;;;29.24;38.34;94365.03;4908361;29;7198;-62